| time (UTC) | temp C | wind direction | speed KPH | gust KPH | rain 1hr cm | rain 24hr cm | rain mn cm | humidity % | barometer mb |
| 20260506191651 | 12 | 198 | 3.2 | 4.8 | 0.00 | 0.00 | 0.00 | 86 | 1019.7 |
| 20260506191147 | 11 | 177 | 9.7 | 11.3 | 0.00 | 0.00 | 0.00 | 87 | 1019.7 |
| 20260506190644 | 11 | 177 | 9.7 | 11.3 | 0.00 | 0.00 | 0.00 | 87 | 1019.8 |
| 20260506190141 | 11 | 177 | 9.7 | 11.3 | 0.00 | 0.00 | 0.00 | 87 | 1019.8 |
| 20260506185638 | 11 | 177 | 9.7 | 11.3 | 0.00 | 0.00 | 0.00 | 87 | 1019.8 |
| 20260506185134 | 11 | 174 | 1.6 | 12.9 | 0.00 | 0.00 | 0.00 | 86 | 1019.7 |
| 20260506184632 | 11 | 174 | 1.6 | 12.9 | 0.00 | 0.00 | 0.00 | 86 | 1019.7 |
| 20260506184129 | 11 | 174 | 1.6 | 12.9 | 0.00 | 0.00 | 0.00 | 86 | 1019.5 |
| 20260506183626 | 11 | 176 | 3.2 | 8.0 | 0.00 | 0.00 | 0.00 | 87 | 1019.3 |
| 20260506183121 | 12 | 299 | 0.0 | 6.4 | 0.00 | 0.00 | 0.00 | 88 | 1019.6 |
| 20260506182619 | 11 | 243 | 1.6 | 6.4 | 0.00 | 0.00 | 0.00 | 87 | 1019.5 |
| 20260506182116 | 11 | 322 | 3.2 | 3.2 | 0.00 | 0.00 | 0.00 | 87 | 1019.4 |
| 20260506181614 | 11 | 322 | 3.2 | 3.2 | 0.00 | 0.00 | 0.00 | 87 | 1019.3 |
| 20260506181111 | 11 | 322 | 3.2 | 3.2 | 0.00 | 0.00 | 0.00 | 87 | 1019.5 |
| 20260506180608 | 11 | 322 | 3.2 | 3.2 | 0.00 | 0.00 | 0.00 | 87 | 1019.4 |
| 20260506180104 | 11 | 322 | 3.2 | 3.2 | 0.00 | 0.00 | 0.00 | 87 | 1019.5 |
| 20260506175600 | 11 | 322 | 3.2 | 3.2 | 0.00 | 0.00 | 0.00 | 87 | 1019.4 |
| 20260506175056 | 11 | 322 | 3.2 | 3.2 | 0.00 | 0.00 | 0.00 | 87 | 1019.3 |
| 20260506174556 | 11 | 322 | 3.2 | 3.2 | 0.00 | 0.00 | 0.00 | 87 | 1019.4 |
| 20260506174051 | 11 | 322 | 3.2 | 3.2 | 0.00 | 0.00 | 0.00 | 87 | 1019.4 |
| 20260506173549 | 11 | 345 | 9.7 | 9.7 | 0.00 | 0.00 | 0.00 | 88 | 1019.0 |
| 20260506173046 | 11 | 225 | 4.8 | 8.0 | 0.00 | 0.00 | 0.00 | 87 | 1019.2 |
| 20260506172543 | 11 | 225 | 4.8 | 8.0 | 0.00 | 0.00 | 0.00 | 87 | 1019.3 |
| 20260506172039 | 11 | 301 | 4.8 | 4.8 | 0.00 | 0.00 | 0.00 | 88 | 1019.2 |
| 20260506171537 | 11 | 321 | 3.2 | 4.8 | 0.00 | 0.00 | 0.00 | 87 | 1019.2 |
| 20260506171034 | 11 | 321 | 3.2 | 4.8 | 0.00 | 0.00 | 0.00 | 87 | 1019.2 |
| 20260506170532 | 11 | 321 | 3.2 | 4.8 | 0.00 | 0.00 | 0.00 | 87 | 1019.3 |
| 20260506170029 | 11 | 321 | 3.2 | 4.8 | 0.00 | 0.00 | 0.00 | 87 | 1019.0 |
| 20260506165528 | 11 | 321 | 3.2 | 4.8 | 0.00 | 0.00 | 0.00 | 87 | 1019.0 |
| 20260506165023 | 11 | 321 | 3.2 | 4.8 | 0.00 | 0.00 | 0.00 | 87 | 1019.0 |
| 20260506164520 | 11 | 169 | 4.8 | 4.8 | 0.00 | 0.00 | 0.00 | 87 | 1018.9 |
| 20260506164018 | 11 | 169 | 4.8 | 4.8 | 0.00 | 0.00 | 0.00 | 87 | 1018.9 |
| 20260506163514 | 11 | 169 | 4.8 | 4.8 | 0.00 | 0.00 | 0.00 | 87 | 1018.8 |
| 20260506163010 | 11 | 169 | 4.8 | 4.8 | 0.00 | 0.00 | 0.00 | 87 | 1019.0 |
| 20260506162506 | 11 | 169 | 4.8 | 4.8 | 0.00 | 0.00 | 0.00 | 87 | 1019.0 |
| 20260506162003 | 11 | 169 | 4.8 | 4.8 | 0.00 | 0.00 | 0.00 | 87 | 1018.9 |
| 20260506161501 | 11 | 203 | 0.0 | 6.4 | 0.00 | 0.00 | 0.00 | 88 | 1019.0 |
| 20260506160958 | 10 | 356 | 0.0 | 4.8 | 0.00 | 0.00 | 0.00 | 92 | 1018.7 |
| 20260506160455 | 10 | 356 | 0.0 | 4.8 | 0.00 | 0.00 | 0.00 | 92 | 1018.7 |
| 20260506155952 | 10 | 356 | 0.0 | 4.8 | 0.00 | 0.00 | 0.00 | 92 | 1018.7 |
| 20260506155450 | 10 | 356 | 0.0 | 4.8 | 0.00 | 0.00 | 0.00 | 92 | 1018.8 |
| 20260506153616 | 10 | 356 | 0.0 | 4.8 | 0.00 | 0.00 | 0.00 | 92 | 1019.1 |
| 20260506153114 | 10 | 356 | 0.0 | 4.8 | 0.00 | 0.00 | 0.00 | 92 | 1019.1 |
| 20260506152611 | 10 | 356 | 0.0 | 4.8 | 0.00 | 0.00 | 0.00 | 92 | 1019.0 |
| 20260506152109 | 10 | 261 | 0.0 | 0.0 | 0.00 | 0.00 | 0.00 | 94 | 1019.1 |
| 20260506151607 | 10 | 261 | 0.0 | 0.0 | 0.00 | 0.00 | 0.00 | 94 | 1018.9 |
| 20260506151103 | 10 | 261 | 0.0 | 0.0 | 0.00 | 0.00 | 0.00 | 94 | 1018.9 |
| 20260506150600 | 10 | 261 | 0.0 | 0.0 | 0.00 | 0.00 | 0.00 | 94 | 1018.7 |
| 20260506150057 | 10 | 261 | 0.0 | 0.0 | 0.00 | 0.00 | 0.00 | 94 | 1018.6 |
| 20260506145554 | 10 | 261 | 0.0 | 0.0 | 0.00 | 0.00 | 0.00 | 94 | 1018.5 |
| 20260506145051 | 10 | 261 | 0.0 | 0.0 | 0.00 | 0.00 | 0.00 | 94 | 1018.5 |
| 20260506144547 | 10 | 286 | 0.0 | 0.0 | 0.00 | 0.00 | 0.00 | 94 | 1018.6 |
| 20260506144045 | 10 | 270 | 3.2 | 3.2 | 0.00 | 0.00 | 0.00 | 94 | 1018.5 |
| 20260506143542 | 10 | 221 | 6.4 | 6.4 | 0.00 | 0.00 | 0.00 | 94 | 1018.3 |
| 20260506143041 | 10 | 206 | 0.0 | 0.0 | 0.00 | 0.00 | 0.00 | 95 | 1018.3 |
| 20260506142538 | 10 | 206 | 0.0 | 0.0 | 0.00 | 0.00 | 0.00 | 95 | 1018.4 |
| 20260506142036 | 10 | 206 | 0.0 | 0.0 | 0.00 | 0.00 | 0.00 | 95 | 1018.3 |
| 20260506141533 | 10 | 206 | 0.0 | 0.0 | 0.00 | 0.00 | 0.00 | 95 | 1018.3 |
| 20260506141032 | 10 | 206 | 0.0 | 0.0 | 0.00 | 0.00 | 0.00 | 95 | 1018.1 |
| 20260506140529 | 10 | 206 | 0.0 | 0.0 | 0.00 | 0.00 | 0.00 | 95 | 1018.2 |
| 20260506140026 | 10 | 206 | 0.0 | 0.0 | 0.00 | 0.00 | 0.00 | 95 | 1018.4 |
| 20260506135523 | 10 | 206 | 0.0 | 0.0 | 0.00 | 0.00 | 0.00 | 95 | 1018.1 |
| 20260506135019 | 10 | 206 | 0.0 | 0.0 | 0.00 | 0.00 | 0.00 | 95 | 1018.0 |
| 20260506134515 | 10 | 206 | 0.0 | 0.0 | 0.00 | 0.00 | 0.00 | 95 | 1018.1 |
| 20260506134012 | 10 | 279 | 0.0 | 0.0 | 0.00 | 0.00 | 0.00 | 95 | 1018.0 |
| 20260506133509 | 10 | 279 | 0.0 | 0.0 | 0.00 | 0.00 | 0.00 | 95 | 1017.9 |
| 20260506133006 | 10 | 279 | 0.0 | 0.0 | 0.00 | 0.00 | 0.00 | 95 | 1018.0 |
| 20260506132503 | 10 | 283 | 1.6 | 1.6 | 0.00 | 0.00 | 0.00 | 96 | 1017.9 |
| 20260506132000 | 10 | 283 | 1.6 | 1.6 | 0.00 | 0.00 | 0.00 | 96 | 1017.9 |
| 20260506131457 | 10 | 262 | 0.0 | 1.6 | 0.00 | 0.00 | 0.00 | 95 | 1017.9 |
| 20260506130954 | 10 | 262 | 0.0 | 1.6 | 0.00 | 0.00 | 0.00 | 95 | 1017.9 |
| 20260506130450 | 10 | 262 | 0.0 | 1.6 | 0.00 | 0.00 | 0.00 | 95 | 1017.7 |
| 20260506125948 | 10 | 262 | 0.0 | 1.6 | 0.00 | 0.00 | 0.00 | 95 | 1017.9 |
| 20260506125446 | 10 | 262 | 0.0 | 1.6 | 0.00 | 0.00 | 0.00 | 95 | 1017.7 |
| 20260506124944 | 10 | 262 | 0.0 | 1.6 | 0.00 | 0.00 | 0.00 | 95 | 1017.7 |
| 20260506124441 | 10 | 262 | 0.0 | 1.6 | 0.00 | 0.00 | 0.00 | 95 | 1017.8 |
| 20260506123939 | 10 | 262 | 0.0 | 1.6 | 0.00 | 0.00 | 0.00 | 95 | 1017.7 |
| 20260506123437 | 10 | 337 | 0.0 | 1.6 | 0.00 | 0.00 | 0.00 | 95 | 1017.8 |
| 20260506122934 | 10 | 337 | 0.0 | 1.6 | 0.00 | 0.00 | 0.00 | 95 | 1017.7 |
| 20260506122431 | 10 | 337 | 0.0 | 1.6 | 0.00 | 0.00 | 0.00 | 95 | 1017.9 |
| 20260506121929 | 10 | 337 | 0.0 | 1.6 | 0.00 | 0.00 | 0.00 | 95 | 1017.7 |
| 20260506121426 | 10 | 337 | 0.0 | 1.6 | 0.00 | 0.00 | 0.00 | 95 | 1017.7 |
| 20260506120923 | 10 | 337 | 0.0 | 1.6 | 0.00 | 0.00 | 0.00 | 95 | 1018.1 |
| 20260506120420 | 10 | 337 | 0.0 | 1.6 | 0.00 | 0.00 | 0.00 | 95 | 1018.0 |
| 20260506115917 | 10 | 337 | 0.0 | 1.6 | 0.00 | 0.00 | 0.00 | 95 | 1017.8 |
| 20260506115415 | 10 | 337 | 0.0 | 1.6 | 0.00 | 0.00 | 0.00 | 95 | 1017.8 |
| 20260506114914 | 10 | 337 | 0.0 | 1.6 | 0.00 | 0.00 | 0.00 | 95 | 1017.7 |
| 20260506114411 | 10 | 278 | 1.6 | 3.2 | 0.00 | 0.00 | 0.00 | 95 | 1017.7 |
| 20260506113910 | 10 | 322 | 0.0 | 3.2 | 0.00 | 0.00 | 0.00 | 95 | 1017.7 |
| 20260506113407 | 10 | 322 | 0.0 | 3.2 | 0.00 | 0.00 | 0.00 | 95 | 1017.5 |
| 20260506112903 | 10 | 322 | 0.0 | 3.2 | 0.00 | 0.00 | 0.00 | 95 | 1017.5 |
| 20260506112400 | 10 | 322 | 0.0 | 3.2 | 0.00 | 0.00 | 0.00 | 95 | 1017.6 |
| 20260506111857 | 10 | 303 | 0.0 | 3.2 | 0.00 | 0.00 | 0.00 | 95 | 1017.4 |
| 20260506111356 | 10 | 303 | 0.0 | 3.2 | 0.00 | 0.00 | 0.00 | 95 | 1017.4 |
| 20260506110853 | 10 | 303 | 0.0 | 3.2 | 0.00 | 0.00 | 0.00 | 95 | 1017.3 |
| 20260506110350 | 10 | 328 | 0.0 | 1.6 | 0.00 | 0.00 | 0.00 | 95 | 1017.1 |
| 20260506105847 | 10 | 291 | 1.6 | 1.6 | 0.00 | 0.00 | 0.00 | 95 | 1017.4 |
| 20260506105343 | 10 | 291 | 1.6 | 1.6 | 0.00 | 0.00 | 0.00 | 95 | 1017.2 |
| 20260506104841 | 10 | 291 | 1.6 | 1.6 | 0.00 | 0.00 | 0.00 | 95 | 1017.1 |
| 20260506104338 | 10 | 291 | 1.6 | 1.6 | 0.00 | 0.00 | 0.00 | 95 | 1017.1 |
| 20260506103836 | 10 | 291 | 1.6 | 1.6 | 0.00 | 0.00 | 0.00 | 95 | 1017.2 |
| 20260506103333 | 10 | 291 | 1.6 | 1.6 | 0.00 | 0.00 | 0.00 | 95 | 1017.1 |
| 20260506102830 | 10 | 291 | 1.6 | 1.6 | 0.00 | 0.00 | 0.00 | 95 | 1016.9 |
| 20260506102328 | 10 | 291 | 1.6 | 1.6 | 0.00 | 0.00 | 0.00 | 95 | 1017.0 |
| 20260506101825 | 10 | 305 | 3.2 | 4.8 | 0.00 | 0.00 | 0.00 | 95 | 1016.5 |
| 20260506101321 | 10 | 305 | 3.2 | 4.8 | 0.00 | 0.00 | 0.00 | 95 | 1016.9 |
| 20260506100819 | 10 | 320 | 0.0 | 3.2 | 0.00 | 0.00 | 0.00 | 95 | 1016.6 |
| 20260506100317 | 10 | 320 | 0.0 | 3.2 | 0.00 | 0.00 | 0.00 | 95 | 1016.7 |
| 20260506095815 | 10 | 300 | 0.0 | 1.6 | 0.00 | 0.00 | 0.00 | 95 | 1016.9 |
| 20260506095312 | 10 | 300 | 0.0 | 1.6 | 0.00 | 0.00 | 0.00 | 95 | 1016.7 |
| 20260506094809 | 10 | 297 | 1.6 | 3.2 | 0.00 | 0.00 | 0.00 | 95 | 1016.9 |
| 20260506094308 | 10 | 309 | 3.2 | 3.2 | 0.00 | 0.00 | 0.00 | 95 | 1016.6 |
| 20260506093805 | 10 | 276 | 1.6 | 1.6 | 0.00 | 0.00 | 0.00 | 95 | 1016.7 |
| 20260506093302 | 10 | 315 | 3.2 | 3.2 | 0.00 | 0.00 | 0.00 | 95 | 1016.8 |
| 20260506092800 | 10 | 304 | 0.0 | 3.2 | 0.00 | 0.00 | 0.00 | 95 | 1016.6 |
| 20260506092258 | 10 | 304 | 0.0 | 3.2 | 0.00 | 0.00 | 0.00 | 95 | 1016.7 |
| 20260506091755 | 10 | 283 | 0.0 | 1.6 | 0.00 | 0.00 | 0.00 | 95 | 1016.7 |
| 20260506091252 | 10 | 283 | 0.0 | 1.6 | 0.00 | 0.00 | 0.00 | 95 | 1016.7 |
| 20260506090750 | 10 | 283 | 0.0 | 1.6 | 0.00 | 0.00 | 0.00 | 95 | 1016.7 |
| 20260506090247 | 10 | 286 | 0.0 | 1.6 | 0.00 | 0.00 | 0.00 | 95 | 1016.7 |
| 20260506085743 | 10 | 294 | 0.0 | 0.0 | 0.00 | 0.00 | 0.00 | 96 | 1016.4 |
| 20260506085240 | 10 | 294 | 0.0 | 0.0 | 0.00 | 0.00 | 0.00 | 96 | 1016.5 |
| 20260506084736 | 10 | 294 | 0.0 | 0.0 | 0.00 | 0.00 | 0.00 | 96 | 1016.6 |
| 20260506084233 | 10 | 254 | 0.0 | 1.6 | 0.00 | 0.00 | 0.00 | 96 | 1016.7 |
| 20260506083730 | 10 | 340 | 0.0 | 0.0 | 0.00 | 0.00 | 0.00 | 97 | 1016.4 |
| 20260506083227 | 10 | 340 | 0.0 | 0.0 | 0.00 | 0.00 | 0.00 | 97 | 1016.4 |
| 20260506082725 | 10 | 340 | 0.0 | 0.0 | 0.00 | 0.00 | 0.00 | 97 | 1016.5 |
| 20260506082220 | 10 | 340 | 0.0 | 0.0 | 0.00 | 0.00 | 0.00 | 97 | 1016.6 |
| 20260506081718 | 10 | 342 | 1.6 | 3.2 | 0.00 | 0.00 | 0.00 | 98 | 1016.4 |
| 20260506081215 | 10 | 342 | 1.6 | 3.2 | 0.00 | 0.00 | 0.00 | 98 | 1016.4 |
| 20260506080713 | 10 | 342 | 1.6 | 3.2 | 0.00 | 0.00 | 0.00 | 98 | 1016.4 |
| 20260506080209 | 10 | 342 | 1.6 | 3.2 | 0.00 | 0.00 | 0.00 | 98 | 1016.4 |
| 20260506073154 | 10 | 279 | 0.0 | 0.0 | 0.00 | 0.00 | 0.00 | 99 | 1015.9 |
| 20260506072650 | 10 | 279 | 0.0 | 0.0 | 0.00 | 0.00 | 0.00 | 99 | 1015.8 |
| 20260506072148 | 10 | 279 | 0.0 | 0.0 | 0.00 | 0.00 | 0.00 | 99 | 1016.0 |
| 20260506071645 | 10 | 279 | 0.0 | 0.0 | 0.00 | 0.00 | 0.00 | 99 | 1016.0 |
| 20260506071143 | 10 | 261 | 0.0 | 0.0 | 0.00 | 0.00 | 0.00 | 98 | 1015.9 |
| 20260506070640 | 10 | 261 | 0.0 | 0.0 | 0.00 | 0.00 | 0.00 | 98 | 1015.8 |
| 20260506070137 | 10 | 261 | 0.0 | 0.0 | 0.00 | 0.00 | 0.00 | 98 | 1015.7 |
| 20260506062451 | 10 | 261 | 0.0 | 0.0 | 0.00 | 0.00 | 0.00 | 98 | 1015.6 |
| 20260506061947 | 10 | 261 | 0.0 | 0.0 | 0.00 | 0.00 | 0.00 | 98 | 1015.6 |
| 20260506061443 | 9 | 260 | 0.0 | 0.0 | 0.00 | 0.00 | 0.00 | 95 | 1015.6 |
| 20260506060942 | 9 | 260 | 0.0 | 0.0 | 0.00 | 0.00 | 0.00 | 94 | 1015.5 |
| 20260506060440 | 9 | 260 | 0.0 | 0.0 | 0.00 | 0.00 | 0.00 | 94 | 1015.5 |
| 20260506051412 | 10 | 203 | 0.0 | 3.2 | 0.00 | 0.00 | 0.00 | 96 | 1015.3 |
| 20260506050908 | 10 | 203 | 0.0 | 3.2 | 0.00 | 0.00 | 0.00 | 96 | 1015.6 |
| 20260506050406 | 10 | 203 | 0.0 | 3.2 | 0.00 | 0.00 | 0.00 | 96 | 1015.6 |
| 20260506044856 | 10 | 203 | 0.0 | 3.2 | 0.00 | 0.00 | 0.00 | 96 | 1015.6 |
| 20260506044354 | 10 | 342 | 1.6 | 3.2 | 0.00 | 0.00 | 0.00 | 93 | 1015.5 |
| 20260506043851 | 10 | 220 | 3.2 | 4.8 | 0.00 | 0.00 | 0.00 | 93 | 1015.6 |
| 20260506043348 | 10 | 190 | 1.6 | 4.8 | 0.00 | 0.00 | 0.00 | 93 | 1015.2 |
| 20260506042846 | 10 | 269 | 1.6 | 4.8 | 0.00 | 0.00 | 0.00 | 93 | 1015.2 |
| 20260506042345 | 10 | 239 | 0.0 | 1.6 | 0.00 | 0.00 | 0.00 | 93 | 1015.1 |
| 20260506041844 | 10 | 265 | 0.0 | 1.6 | 0.00 | 0.00 | 0.00 | 93 | 1015.2 |
| 20260506041340 | 10 | 20 | 0.0 | 1.6 | 0.00 | 0.00 | 0.00 | 93 | 1015.0 |
| 20260506040837 | 10 | 350 | 0.0 | 4.8 | 0.00 | 0.00 | 0.00 | 93 | 1014.9 |
| 20260506040335 | 10 | 284 | 0.0 | 3.2 | 0.00 | 0.00 | 0.00 | 93 | 1015.0 |
| 20260506035831 | 10 | 25 | 0.0 | 0.0 | 0.00 | 0.00 | 0.00 | 92 | 1014.6 |
| 20260506035328 | 10 | 25 | 0.0 | 1.6 | 0.00 | 0.00 | 0.00 | 92 | 1014.7 |
| 20260506034825 | 10 | 234 | 0.0 | 1.6 | 0.00 | 0.00 | 0.00 | 92 | 1014.6 |
| 20260506034323 | 11 | 234 | 1.6 | 1.6 | 0.00 | 0.00 | 0.00 | 92 | 1014.6 |
| 20260506033819 | 11 | 234 | 1.6 | 3.2 | 0.00 | 0.00 | 0.00 | 92 | 1014.5 |
| 20260506032455 | 12 | 237 | 3.2 | 3.2 | 0.00 | 0.00 | 0.00 | 87 | 1014.4 |
| 20260506031951 | 12 | 237 | 3.2 | 3.2 | 0.00 | 0.00 | 0.00 | 87 | 1014.4 |
| 20260506031448 | 12 | 237 | 3.2 | 3.2 | 0.00 | 0.00 | 0.00 | 87 | 1014.3 |
| 20260506030946 | 12 | 237 | 3.2 | 3.2 | 0.00 | 0.00 | 0.00 | 87 | 1014.3 |
| 20260506030444 | 12 | 237 | 3.2 | 3.2 | 0.00 | 0.00 | 0.00 | 87 | 1014.4 |
| 20260506025940 | 12 | 237 | 3.2 | 3.2 | 0.00 | 0.00 | 0.00 | 87 | 1014.4 |
| 20260506024518 | 12 | 237 | 3.2 | 3.2 | 0.00 | 0.00 | 0.00 | 87 | 1014.4 |
| 20260506024014 | 12 | 237 | 3.2 | 3.2 | 0.00 | 0.00 | 0.00 | 87 | 1014.4 |
| 20260506023510 | 12 | 237 | 3.2 | 3.2 | 0.00 | 0.00 | 0.00 | 87 | 1014.3 |
| 20260506023008 | 12 | 237 | 3.2 | 3.2 | 0.00 | 0.00 | 0.00 | 87 | 1014.4 |
| 20260506022505 | 12 | 287 | 3.2 | 3.2 | 0.00 | 0.00 | 0.00 | 86 | 1014.3 |
| 20260506022002 | 12 | 287 | 3.2 | 3.2 | 0.00 | 0.00 | 0.00 | 86 | 1014.3 |
| 20260506021500 | 12 | 287 | 3.2 | 3.2 | 0.00 | 0.00 | 0.00 | 86 | 1014.4 |
| 20260506020957 | 14 | 270 | 4.8 | 6.4 | 0.00 | 0.00 | 0.00 | 81 | 1014.6 |
| 20260506020454 | 14 | 270 | 4.8 | 6.4 | 0.00 | 0.00 | 0.00 | 81 | 1014.5 |
| 20260506015951 | 14 | 270 | 4.8 | 6.4 | 0.00 | 0.00 | 0.00 | 81 | 1014.5 |
| 20260506015449 | 14 | 270 | 4.8 | 6.4 | 0.00 | 0.00 | 0.00 | 81 | 1014.4 |
| 20260506014946 | 14 | 270 | 4.8 | 6.4 | 0.00 | 0.00 | 0.00 | 81 | 1014.3 |
| 20260506014442 | 14 | 270 | 4.8 | 6.4 | 0.00 | 0.00 | 0.00 | 81 | 1014.3 |
| 20260506013939 | 14 | 270 | 4.8 | 6.4 | 0.00 | 0.00 | 0.00 | 81 | 1014.3 |
| 20260506013437 | 15 | 332 | 6.4 | 9.7 | 0.00 | 0.00 | 0.00 | 80 | 1014.6 |
| 20260506012933 | 14 | 270 | 3.2 | 4.8 | 0.00 | 0.00 | 0.00 | 81 | 1014.6 |
| 20260506012430 | 14 | 242 | 11.3 | 12.9 | 0.00 | 0.00 | 0.00 | 79 | 1014.4 |
| 20260506011927 | 15 | 241 | 3.2 | 4.8 | 0.00 | 0.00 | 0.00 | 80 | 1014.4 |
| 20260506011424 | 14 | 168 | 6.4 | 6.4 | 0.00 | 0.00 | 0.00 | 79 | 1014.5 |
| 20260506010921 | 14 | 236 | 3.2 | 16.1 | 0.00 | 0.00 | 0.00 | 80 | 1014.3 |
| 20260506010420 | 15 | 327 | 4.8 | 6.4 | 0.00 | 0.00 | 0.00 | 78 | 1014.3 |
| 20260506005915 | 15 | 295 | 3.2 | 4.8 | 0.00 | 0.00 | 0.00 | 79 | 1014.5 |
| 20260506005414 | 15 | 342 | 1.6 | 9.7 | 0.00 | 0.00 | 0.00 | 78 | 1014.5 |
| 20260506004908 | 15 | 309 | 4.8 | 11.3 | 0.00 | 0.00 | 0.00 | 79 | 1014.5 |
| 20260506004407 | 15 | 303 | 9.7 | 12.9 | 0.00 | 0.00 | 0.00 | 77 | 1014.4 |
| 20260506003902 | 15 | 244 | 1.6 | 4.8 | 0.00 | 0.00 | 0.00 | 77 | 1014.2 |
| 20260506003359 | 15 | 275 | 3.2 | 11.3 | 0.00 | 0.00 | 0.00 | 78 | 1014.4 |
| 20260506002855 | 15 | 275 | 4.8 | 16.1 | 0.00 | 0.00 | 0.00 | 80 | 1014.6 |
| 20260506002351 | 15 | 255 | 0.0 | 14.5 | 0.00 | 0.00 | 0.00 | 79 | 1014.6 |
| 20260506001847 | 15 | 332 | 1.6 | 12.9 | 0.00 | 0.00 | 0.00 | 78 | 1014.6 |
| 20260506001344 | 15 | 308 | 3.2 | 4.8 | 0.00 | 0.00 | 0.00 | 79 | 1014.7 |
| 20260506000841 | 15 | 159 | 1.6 | 16.1 | 0.00 | 0.00 | 0.00 | 81 | 1014.7 |
| 20260506000340 | 15 | 318 | 4.8 | 12.9 | 0.00 | 0.00 | 0.00 | 79 | 1014.7 |
| 20260505235836 | 15 | 252 | 3.2 | 11.3 | 0.00 | 0.00 | 0.00 | 80 | 1014.8 |
| 20260505235333 | 14 | 345 | 1.6 | 11.3 | 0.00 | 0.00 | 0.00 | 80 | 1014.7 |
| 20260505234830 | 14 | 337 | 1.6 | 12.9 | 0.00 | 0.00 | 0.00 | 79 | 1014.9 |
| 20260505234328 | 15 | 337 | 9.7 | 14.5 | 0.00 | 0.00 | 0.00 | 79 | 1015.0 |
| 20260505233825 | 15 | 262 | 9.7 | 16.1 | 0.00 | 0.00 | 0.00 | 78 | 1014.9 |
| 20260505233322 | 15 | 317 | 3.2 | 12.9 | 0.00 | 0.00 | 0.00 | 80 | 1014.9 |
| 20260505232819 | 15 | 291 | 3.2 | 9.7 | 0.00 | 0.00 | 0.00 | 79 | 1015.0 |
| 20260505232317 | 15 | 289 | 8.0 | 11.3 | 0.00 | 0.00 | 0.00 | 80 | 1015.0 |
| 20260505231814 | 15 | 245 | 9.7 | 12.9 | 0.00 | 0.00 | 0.00 | 79 | 1014.9 |
| 20260505231312 | 15 | 285 | 3.2 | 16.1 | 0.00 | 0.00 | 0.00 | 80 | 1015.3 |
| 20260505230810 | 15 | 290 | 4.8 | 14.5 | 0.00 | 0.00 | 0.00 | 80 | 1015.2 |
| 20260505230307 | 15 | 300 | 3.2 | 9.7 | 0.00 | 0.00 | 0.00 | 79 | 1015.2 |
| 20260505225803 | 15 | 105 | 1.6 | 3.2 | 0.00 | 0.00 | 0.00 | 78 | 1015.2 |
| 20260505225300 | 15 | 308 | 4.8 | 14.5 | 0.00 | 0.00 | 0.00 | 79 | 1015.3 |
| 20260505224755 | 15 | 309 | 11.3 | 12.9 | 0.00 | 0.00 | 0.00 | 79 | 1015.3 |
| 20260505224253 | 15 | 312 | 8.0 | 17.7 | 0.00 | 0.00 | 0.00 | 80 | 1015.3 |
| 20260505223750 | 15 | 331 | 6.4 | 12.9 | 0.00 | 0.00 | 0.00 | 80 | 1015.3 |
| 20260505223247 | 15 | 314 | 6.4 | 14.5 | 0.00 | 0.00 | 0.00 | 80 | 1015.4 |
| 20260505222743 | 15 | 330 | 1.6 | 9.7 | 0.00 | 0.00 | 0.00 | 80 | 1015.4 |
| 20260505222239 | 15 | 251 | 3.2 | 14.5 | 0.00 | 0.00 | 0.00 | 82 | 1015.4 |
| 20260505221736 | 15 | 8 | 6.4 | 16.1 | 0.00 | 0.00 | 0.00 | 81 | 1015.4 |
| 20260505221233 | 15 | 324 | 1.6 | 11.3 | 0.00 | 0.00 | 0.00 | 82 | 1015.6 |
| 20260505220730 | 15 | 260 | 9.7 | 12.9 | 0.00 | 0.00 | 0.00 | 81 | 1015.6 |
| 20260505220227 | 15 | 258 | 8.0 | 11.3 | 0.00 | 0.00 | 0.00 | 82 | 1015.5 |
| 20260505215725 | 14 | 24 | 3.2 | 9.7 | 0.00 | 0.00 | 0.00 | 81 | 1015.7 |
| 20260505215223 | 14 | 5 | 8.0 | 9.7 | 0.00 | 0.00 | 0.00 | 83 | 1015.5 |
| 20260505214720 | 15 | 335 | 6.4 | 12.9 | 0.00 | 0.00 | 0.00 | 82 | 1015.8 |
| 20260505214218 | 14 | 290 | 3.2 | 9.7 | 0.00 | 0.00 | 0.00 | 83 | 1015.9 |
| 20260505213715 | 14 | 260 | 3.2 | 4.8 | 0.00 | 0.00 | 0.00 | 84 | 1015.7 |
| 20260505213212 | 15 | 251 | 4.8 | 12.9 | 0.00 | 0.00 | 0.00 | 82 | 1015.7 |
| 20260505212708 | 14 | 264 | 4.8 | 6.4 | 0.00 | 0.00 | 0.00 | 82 | 1015.9 |
| 20260505212206 | 14 | 343 | 6.4 | 11.3 | 0.00 | 0.00 | 0.00 | 86 | 1015.8 |
| 20260505211702 | 15 | 282 | 3.2 | 6.4 | 0.00 | 0.00 | 0.00 | 84 | 1015.8 |
| 20260505211200 | 15 | 282 | 3.2 | 6.4 | 0.00 | 0.00 | 0.00 | 84 | 1015.6 |
| 20260505210656 | 15 | 282 | 3.2 | 6.4 | 0.00 | 0.00 | 0.00 | 84 | 1015.7 |
| 20260505210153 | 15 | 282 | 3.2 | 6.4 | 0.00 | 0.00 | 0.00 | 84 | 1015.8 |
| 20260505205650 | 15 | 282 | 3.2 | 6.4 | 0.00 | 0.00 | 0.00 | 84 | 1015.8 |
| 20260505205148 | 15 | 282 | 3.2 | 6.4 | 0.00 | 0.00 | 0.00 | 84 | 1015.8 |
| 20260505204644 | 15 | 282 | 3.2 | 6.4 | 0.00 | 0.00 | 0.00 | 84 | 1015.8 |
| 20260505204143 | 15 | 282 | 3.2 | 6.4 | 0.00 | 0.00 | 0.00 | 84 | 1015.8 |
| 20260505203640 | 15 | 282 | 3.2 | 6.4 | 0.00 | 0.00 | 0.00 | 84 | 1015.7 |
| 20260505203136 | 15 | 282 | 3.2 | 6.4 | 0.00 | 0.00 | 0.00 | 84 | 1015.7 |
| 20260505202632 | 15 | 282 | 3.2 | 6.4 | 0.00 | 0.00 | 0.00 | 84 | 1015.7 |
| 20260505202128 | 15 | 282 | 3.2 | 6.4 | 0.00 | 0.00 | 0.00 | 84 | 1015.9 |
| 20260505201625 | 14 | 264 | 4.8 | 9.7 | 0.00 | 0.00 | 0.00 | 83 | 1015.8 |
| 20260505201123 | 14 | 338 | 4.8 | 8.0 | 0.00 | 0.00 | 0.00 | 83 | 1015.8 |
| 20260505200621 | 14 | 338 | 4.8 | 8.0 | 0.00 | 0.00 | 0.00 | 83 | 1015.7 |
| 20260505200118 | 14 | 338 | 4.8 | 8.0 | 0.00 | 0.00 | 0.00 | 83 | 1015.6 |
| 20260505195614 | 14 | 304 | 0.0 | 6.4 | 0.00 | 0.00 | 0.00 | 85 | 1015.8 |
| 20260505195111 | 13 | 274 | 3.2 | 3.2 | 0.00 | 0.00 | 0.00 | 84 | 1015.9 |
| 20260505194608 | 15 | 274 | 3.2 | 3.2 | 0.00 | 0.00 | 0.00 | 84 | 1015.8 |
| 20260505194104 | 14 | 286 | 1.6 | 4.8 | 0.00 | 0.00 | 0.00 | 84 | 1015.9 |
| 20260505193601 | 13 | 277 | 4.8 | 6.4 | 0.00 | 0.00 | 0.00 | 85 | 1015.8 |
| 20260505193058 | 13 | 289 | 0.0 | 9.7 | 0.00 | 0.00 | 0.00 | 86 | 1015.8 |
| 20260505192557 | 13 | 287 | 4.8 | 4.8 | 0.00 | 0.00 | 0.00 | 87 | 1015.9 |
| 20260505192054 | 13 | 324 | 6.4 | 9.7 | 0.00 | 0.00 | 0.00 | 87 | 1015.8 |